sensor_id;sensor_type;location;lat;lon;timestamp;P1;durP1;ratioP1;P2;durP2;ratioP2
26977;SDS011;56314;48.088;11.642;2022-07-10T00:01:00;4.07;;;3.63;;
26977;SDS011;56314;48.088;11.642;2022-07-10T00:03:25;4.10;;;3.80;;
26977;SDS011;56314;48.088;11.642;2022-07-10T00:05:50;6.80;;;4.10;;
26977;SDS011;56314;48.088;11.642;2022-07-10T00:08:16;5.57;;;4.18;;
26977;SDS011;56314;48.088;11.642;2022-07-10T00:10:41;4.18;;;3.80;;
26977;SDS011;56314;48.088;11.642;2022-07-10T00:13:06;5.07;;;4.55;;
26977;SDS011;56314;48.088;11.642;2022-07-10T00:15:32;5.95;;;4.40;;
26977;SDS011;56314;48.088;11.642;2022-07-10T00:17:58;5.75;;;4.55;;
26977;SDS011;56314;48.088;11.642;2022-07-10T00:20:23;6.57;;;4.60;;
26977;SDS011;56314;48.088;11.642;2022-07-10T00:22:48;6.13;;;4.45;;
26977;SDS011;56314;48.088;11.642;2022-07-10T00:25:14;5.03;;;4.50;;
26977;SDS011;56314;48.088;11.642;2022-07-10T00:27:41;6.05;;;4.38;;
26977;SDS011;56314;48.088;11.642;2022-07-10T00:30:07;5.28;;;3.90;;
26977;SDS011;56314;48.088;11.642;2022-07-10T00:32:33;5.00;;;4.47;;
26977;SDS011;56314;48.088;11.642;2022-07-10T00:34:59;7.43;;;4.38;;
26977;SDS011;56314;48.088;11.642;2022-07-10T00:37:24;6.75;;;4.75;;
26977;SDS011;56314;48.088;11.642;2022-07-10T00:39:50;4.53;;;4.13;;
26977;SDS011;56314;48.088;11.642;2022-07-10T00:42:15;6.57;;;4.20;;
26977;SDS011;56314;48.088;11.642;2022-07-10T00:44:41;5.80;;;4.63;;
26977;SDS011;56314;48.088;11.642;2022-07-10T00:47:08;9.68;;;5.20;;
26977;SDS011;56314;48.088;11.642;2022-07-10T00:49:35;6.57;;;5.05;;
26977;SDS011;56314;48.088;11.642;2022-07-10T00:52:02;8.05;;;5.50;;
26977;SDS011;56314;48.088;11.642;2022-07-10T00:54:30;6.22;;;5.60;;
26977;SDS011;56314;48.088;11.642;2022-07-10T00:56:57;6.13;;;5.35;;
26977;SDS011;56314;48.088;11.642;2022-07-10T00:59:23;6.93;;;5.55;;
26977;SDS011;56314;48.088;11.642;2022-07-10T01:01:50;8.30;;;5.72;;
26977;SDS011;56314;48.088;11.642;2022-07-10T01:04:16;7.88;;;6.75;;
26977;SDS011;56314;48.088;11.642;2022-07-10T01:06:41;7.30;;;5.82;;
26977;SDS011;56314;48.088;11.642;2022-07-10T01:09:07;7.78;;;5.90;;
26977;SDS011;56314;48.088;11.642;2022-07-10T01:11:33;7.10;;;5.70;;
26977;SDS011;56314;48.088;11.642;2022-07-10T01:13:59;7.15;;;6.55;;
26977;SDS011;56314;48.088;11.642;2022-07-10T01:16:25;7.22;;;6.13;;
26977;SDS011;56314;48.088;11.642;2022-07-10T01:18:51;6.95;;;5.32;;
26977;SDS011;56314;48.088;11.642;2022-07-10T01:21:32;6.90;;;5.75;;
26977;SDS011;56314;48.088;11.642;2022-07-10T01:23:59;7.53;;;5.90;;
26977;SDS011;56314;48.088;11.642;2022-07-10T01:26:28;6.47;;;5.88;;
26977;SDS011;56314;48.088;11.642;2022-07-10T01:28:54;6.80;;;6.10;;
26977;SDS011;56314;48.088;11.642;2022-07-10T01:31:24;7.13;;;6.43;;
26977;SDS011;56314;48.088;11.642;2022-07-10T01:33:51;6.57;;;5.97;;
26977;SDS011;56314;48.088;11.642;2022-07-10T01:36:17;8.85;;;6.60;;
26977;SDS011;56314;48.088;11.642;2022-07-10T01:38:42;8.70;;;6.10;;
26977;SDS011;56314;48.088;11.642;2022-07-10T01:41:08;7.35;;;6.65;;
26977;SDS011;56314;48.088;11.642;2022-07-10T01:43:34;7.40;;;6.47;;
26977;SDS011;56314;48.088;11.642;2022-07-10T01:46:01;7.40;;;6.70;;
26977;SDS011;56314;48.088;11.642;2022-07-10T01:48:27;6.97;;;6.25;;
26977;SDS011;56314;48.088;11.642;2022-07-10T01:50:53;9.13;;;6.53;;
26977;SDS011;56314;48.088;11.642;2022-07-10T01:53:18;8.68;;;7.03;;
26977;SDS011;56314;48.088;11.642;2022-07-10T01:55:43;8.20;;;7.40;;
26977;SDS011;56314;48.088;11.642;2022-07-10T01:58:09;7.70;;;7.05;;
26977;SDS011;56314;48.088;11.642;2022-07-10T02:00:34;8.05;;;7.13;;
26977;SDS011;56314;48.088;11.642;2022-07-10T02:02:59;9.85;;;7.97;;
26977;SDS011;56314;48.088;11.642;2022-07-10T02:05:43;8.10;;;7.30;;
26977;SDS011;56314;48.088;11.642;2022-07-10T02:08:09;8.02;;;7.32;;
26977;SDS011;56314;48.088;11.642;2022-07-10T02:10:34;10.70;;;7.50;;
26977;SDS011;56314;48.088;11.642;2022-07-10T02:12:59;8.55;;;7.50;;
26977;SDS011;56314;48.088;11.642;2022-07-10T02:15:24;8.75;;;7.95;;
26977;SDS011;56314;48.088;11.642;2022-07-10T02:17:50;8.68;;;7.82;;
26977;SDS011;56314;48.088;11.642;2022-07-10T02:20:18;8.15;;;7.32;;
26977;SDS011;56314;48.088;11.642;2022-07-10T02:22:44;9.05;;;8.18;;
26977;SDS011;56314;48.088;11.642;2022-07-10T02:25:09;9.38;;;8.48;;
26977;SDS011;56314;48.088;11.642;2022-07-10T02:27:35;9.13;;;8.27;;
26977;SDS011;56314;48.088;11.642;2022-07-10T02:30:00;9.48;;;7.68;;
26977;SDS011;56314;48.088;11.642;2022-07-10T02:32:25;9.05;;;8.15;;
26977;SDS011;56314;48.088;11.642;2022-07-10T02:34:51;9.57;;;8.68;;
26977;SDS011;56314;48.088;11.642;2022-07-10T02:37:16;9.40;;;8.38;;
26977;SDS011;56314;48.088;11.642;2022-07-10T02:39:42;9.20;;;8.32;;
26977;SDS011;56314;48.088;11.642;2022-07-10T02:42:07;8.77;;;7.95;;
26977;SDS011;56314;48.088;11.642;2022-07-10T02:44:33;8.60;;;7.75;;
26977;SDS011;56314;48.088;11.642;2022-07-10T02:46:58;8.80;;;8.00;;
26977;SDS011;56314;48.088;11.642;2022-07-10T02:49:23;8.95;;;8.00;;
26977;SDS011;56314;48.088;11.642;2022-07-10T02:51:49;10.98;;;8.55;;
26977;SDS011;56314;48.088;11.642;2022-07-10T02:54:15;8.57;;;7.78;;
26977;SDS011;56314;48.088;11.642;2022-07-10T02:56:41;8.93;;;8.02;;
26977;SDS011;56314;48.088;11.642;2022-07-10T02:59:06;9.18;;;8.30;;
26977;SDS011;56314;48.088;11.642;2022-07-10T03:01:32;8.93;;;8.10;;
26977;SDS011;56314;48.088;11.642;2022-07-10T03:03:57;10.02;;;8.23;;
26977;SDS011;56314;48.088;11.642;2022-07-10T03:06:23;9.45;;;8.10;;
26977;SDS011;56314;48.088;11.642;2022-07-10T03:08:48;8.70;;;7.90;;
26977;SDS011;56314;48.088;11.642;2022-07-10T03:11:14;8.50;;;7.63;;
26977;SDS011;56314;48.088;11.642;2022-07-10T03:13:39;8.30;;;7.50;;
26977;SDS011;56314;48.088;11.642;2022-07-10T03:16:05;8.40;;;7.70;;
26977;SDS011;56314;48.088;11.642;2022-07-10T03:18:30;9.45;;;7.28;;
26977;SDS011;56314;48.088;11.642;2022-07-10T03:20:56;8.20;;;7.38;;
26977;SDS011;56314;48.088;11.642;2022-07-10T03:23:22;8.57;;;7.38;;
26977;SDS011;56314;48.088;11.642;2022-07-10T03:25:47;8.18;;;7.38;;
26977;SDS011;56314;48.088;11.642;2022-07-10T03:28:12;7.13;;;6.50;;
26977;SDS011;56314;48.088;11.642;2022-07-10T03:30:38;8.27;;;7.05;;
26977;SDS011;56314;48.088;11.642;2022-07-10T03:33:03;8.00;;;7.30;;
26977;SDS011;56314;48.088;11.642;2022-07-10T03:35:29;8.27;;;7.47;;
26977;SDS011;56314;48.088;11.642;2022-07-10T03:37:56;11.32;;;6.80;;
26977;SDS011;56314;48.088;11.642;2022-07-10T03:40:22;8.40;;;7.50;;
26977;SDS011;56314;48.088;11.642;2022-07-10T03:42:47;8.07;;;7.38;;
26977;SDS011;56314;48.088;11.642;2022-07-10T03:45:12;8.25;;;7.43;;
26977;SDS011;56314;48.088;11.642;2022-07-10T03:47:38;8.63;;;7.18;;
26977;SDS011;56314;48.088;11.642;2022-07-10T03:50:03;7.35;;;6.65;;
26977;SDS011;56314;48.088;11.642;2022-07-10T03:52:29;7.85;;;7.05;;
26977;SDS011;56314;48.088;11.642;2022-07-10T03:54:55;7.90;;;7.18;;
26977;SDS011;56314;48.088;11.642;2022-07-10T03:57:20;7.45;;;6.75;;
26977;SDS011;56314;48.088;11.642;2022-07-10T04:00:04;8.70;;;6.72;;
26977;SDS011;56314;48.088;11.642;2022-07-10T04:02:30;6.88;;;6.10;;
26977;SDS011;56314;48.088;11.642;2022-07-10T04:04:55;8.02;;;7.25;;
26977;SDS011;56314;48.088;11.642;2022-07-10T04:07:21;7.95;;;7.32;;
26977;SDS011;56314;48.088;11.642;2022-07-10T04:09:46;6.85;;;6.18;;
26977;SDS011;56314;48.088;11.642;2022-07-10T04:12:12;6.70;;;6.00;;
26977;SDS011;56314;48.088;11.642;2022-07-10T04:14:37;6.72;;;6.03;;
26977;SDS011;56314;48.088;11.642;2022-07-10T04:17:02;7.10;;;6.40;;
26977;SDS011;56314;48.088;11.642;2022-07-10T04:19:28;7.45;;;6.50;;
26977;SDS011;56314;48.088;11.642;2022-07-10T04:21:53;8.82;;;6.68;;
26977;SDS011;56314;48.088;11.642;2022-07-10T04:24:19;7.65;;;6.93;;
26977;SDS011;56314;48.088;11.642;2022-07-10T04:26:44;7.65;;;6.72;;
26977;SDS011;56314;48.088;11.642;2022-07-10T04:29:09;7.68;;;6.97;;
26977;SDS011;56314;48.088;11.642;2022-07-10T04:31:35;7.63;;;6.93;;
26977;SDS011;56314;48.088;11.642;2022-07-10T04:34:00;8.85;;;7.60;;
26977;SDS011;56314;48.088;11.642;2022-07-10T04:36:26;7.88;;;7.00;;
26977;SDS011;56314;48.088;11.642;2022-07-10T04:38:51;9.48;;;7.32;;
26977;SDS011;56314;48.088;11.642;2022-07-10T04:41:16;9.02;;;6.70;;
26977;SDS011;56314;48.088;11.642;2022-07-10T04:43:42;7.68;;;5.93;;
26977;SDS011;56314;48.088;11.642;2022-07-10T04:46:07;7.03;;;6.35;;
26977;SDS011;56314;48.088;11.642;2022-07-10T04:48:32;8.15;;;6.28;;
26977;SDS011;56314;48.088;11.642;2022-07-10T04:50:58;6.90;;;6.30;;
26977;SDS011;56314;48.088;11.642;2022-07-10T04:53:23;7.55;;;6.78;;
26977;SDS011;56314;48.088;11.642;2022-07-10T04:55:49;7.90;;;7.10;;
26977;SDS011;56314;48.088;11.642;2022-07-10T04:58:15;7.72;;;6.90;;
26977;SDS011;56314;48.088;11.642;2022-07-10T05:00:40;8.70;;;6.35;;
26977;SDS011;56314;48.088;11.642;2022-07-10T05:03:05;8.38;;;6.60;;
26977;SDS011;56314;48.088;11.642;2022-07-10T05:05:31;7.65;;;6.75;;
26977;SDS011;56314;48.088;11.642;2022-07-10T05:07:56;6.90;;;6.30;;
26977;SDS011;56314;48.088;11.642;2022-07-10T05:10:21;7.07;;;6.25;;
26977;SDS011;56314;48.088;11.642;2022-07-10T05:12:47;8.30;;;6.47;;
26977;SDS011;56314;48.088;11.642;2022-07-10T05:15:13;7.13;;;6.53;;
26977;SDS011;56314;48.088;11.642;2022-07-10T05:17:38;9.38;;;6.47;;
26977;SDS011;56314;48.088;11.642;2022-07-10T05:20:04;7.35;;;6.50;;
26977;SDS011;56314;48.088;11.642;2022-07-10T05:22:30;9.50;;;7.55;;
26977;SDS011;56314;48.088;11.642;2022-07-10T05:24:55;16.63;;;11.10;;
26977;SDS011;56314;48.088;11.642;2022-07-10T05:27:21;8.80;;;8.00;;
26977;SDS011;56314;48.088;11.642;2022-07-10T05:29:46;8.88;;;7.80;;
26977;SDS011;56314;48.088;11.642;2022-07-10T05:32:12;9.65;;;7.90;;
26977;SDS011;56314;48.088;11.642;2022-07-10T05:34:38;9.13;;;8.23;;
26977;SDS011;56314;48.088;11.642;2022-07-10T05:37:03;8.25;;;7.45;;
26977;SDS011;56314;48.088;11.642;2022-07-10T05:39:29;9.85;;;8.23;;
26977;SDS011;56314;48.088;11.642;2022-07-10T05:41:54;10.05;;;8.48;;
26977;SDS011;56314;48.088;11.642;2022-07-10T05:44:21;10.15;;;8.93;;
26977;SDS011;56314;48.088;11.642;2022-07-10T05:46:46;9.38;;;8.48;;
26977;SDS011;56314;48.088;11.642;2022-07-10T05:49:12;8.60;;;7.30;;
26977;SDS011;56314;48.088;11.642;2022-07-10T05:51:37;8.88;;;7.95;;
26977;SDS011;56314;48.088;11.642;2022-07-10T05:54:02;10.50;;;8.18;;
26977;SDS011;56314;48.088;11.642;2022-07-10T05:56:28;9.60;;;8.70;;
26977;SDS011;56314;48.088;11.642;2022-07-10T05:58:54;9.45;;;8.55;;
26977;SDS011;56314;48.088;11.642;2022-07-10T06:01:20;8.63;;;7.82;;
26977;SDS011;56314;48.088;11.642;2022-07-10T06:03:46;9.60;;;7.97;;
26977;SDS011;56314;48.088;11.642;2022-07-10T06:06:12;9.88;;;8.68;;
26977;SDS011;56314;48.088;11.642;2022-07-10T06:08:40;11.80;;;8.60;;
26977;SDS011;56314;48.088;11.642;2022-07-10T06:11:06;9.75;;;8.50;;
26977;SDS011;56314;48.088;11.642;2022-07-10T06:13:31;11.27;;;8.65;;
26977;SDS011;56314;48.088;11.642;2022-07-10T06:15:56;9.15;;;8.25;;
26977;SDS011;56314;48.088;11.642;2022-07-10T06:18:22;9.93;;;8.70;;
26977;SDS011;56314;48.088;11.642;2022-07-10T06:20:47;8.38;;;7.57;;
26977;SDS011;56314;48.088;11.642;2022-07-10T06:23:12;9.38;;;8.30;;
26977;SDS011;56314;48.088;11.642;2022-07-10T06:25:37;10.02;;;7.70;;
26977;SDS011;56314;48.088;11.642;2022-07-10T06:28:03;9.80;;;7.72;;
26977;SDS011;56314;48.088;11.642;2022-07-10T06:30:28;7.50;;;6.80;;
26977;SDS011;56314;48.088;11.642;2022-07-10T06:32:54;9.27;;;7.57;;
26977;SDS011;56314;48.088;11.642;2022-07-10T06:35:19;8.13;;;7.32;;
26977;SDS011;56314;48.088;11.642;2022-07-10T06:37:44;13.55;;;7.90;;
26977;SDS011;56314;48.088;11.642;2022-07-10T06:40:13;8.52;;;7.65;;
26977;SDS011;56314;48.088;11.642;2022-07-10T06:42:39;8.43;;;7.63;;
26977;SDS011;56314;48.088;11.642;2022-07-10T06:45:05;8.45;;;7.65;;
26977;SDS011;56314;48.088;11.642;2022-07-10T06:47:31;8.52;;;7.45;;
26977;SDS011;56314;48.088;11.642;2022-07-10T06:50:15;9.40;;;8.17;;
26977;SDS011;56314;48.088;11.642;2022-07-10T06:52:40;8.63;;;7.80;;
26977;SDS011;56314;48.088;11.642;2022-07-10T06:55:06;9.85;;;7.63;;
26977;SDS011;56314;48.088;11.642;2022-07-10T06:57:32;7.22;;;6.55;;
26977;SDS011;56314;48.088;11.642;2022-07-10T06:59:57;9.45;;;7.13;;
26977;SDS011;56314;48.088;11.642;2022-07-10T07:02:23;8.68;;;7.18;;
26977;SDS011;56314;48.088;11.642;2022-07-10T07:04:48;7.40;;;6.63;;
26977;SDS011;56314;48.088;11.642;2022-07-10T07:07:14;7.88;;;7.13;;
26977;SDS011;56314;48.088;11.642;2022-07-10T07:09:40;7.88;;;7.25;;
26977;SDS011;56314;48.088;11.642;2022-07-10T07:12:07;9.00;;;7.75;;
26977;SDS011;56314;48.088;11.642;2022-07-10T07:14:33;8.02;;;7.22;;
26977;SDS011;56314;48.088;11.642;2022-07-10T07:16:58;9.65;;;7.95;;
26977;SDS011;56314;48.088;11.642;2022-07-10T07:19:34;10.73;;;7.03;;
26977;SDS011;56314;48.088;11.642;2022-07-10T07:22:22;7.80;;;7.10;;
26977;SDS011;56314;48.088;11.642;2022-07-10T07:25:07;7.72;;;6.95;;
26977;SDS011;56314;48.088;11.642;2022-07-10T07:27:34;7.63;;;6.90;;
26977;SDS011;56314;48.088;11.642;2022-07-10T07:32:30;7.45;;;6.70;;
26977;SDS011;56314;48.088;11.642;2022-07-10T07:34:55;8.27;;;7.47;;
26977;SDS011;56314;48.088;11.642;2022-07-10T07:37:21;11.43;;;8.43;;
26977;SDS011;56314;48.088;11.642;2022-07-10T07:39:46;8.90;;;7.78;;
26977;SDS011;56314;48.088;11.642;2022-07-10T07:42:12;8.55;;;7.55;;
26977;SDS011;56314;48.088;11.642;2022-07-10T07:44:37;9.30;;;8.40;;
26977;SDS011;56314;48.088;11.642;2022-07-10T07:47:02;8.07;;;7.28;;
26977;SDS011;56314;48.088;11.642;2022-07-10T07:49:28;8.40;;;6.82;;
26977;SDS011;56314;48.088;11.642;2022-07-10T07:51:53;10.73;;;6.65;;
26977;SDS011;56314;48.088;11.642;2022-07-10T07:54:19;7.40;;;6.72;;
26977;SDS011;56314;48.088;11.642;2022-07-10T07:56:44;7.80;;;7.10;;
26977;SDS011;56314;48.088;11.642;2022-07-10T07:59:10;6.50;;;5.90;;
26977;SDS011;56314;48.088;11.642;2022-07-10T08:01:35;6.28;;;5.75;;
26977;SDS011;56314;48.088;11.642;2022-07-10T08:04:01;9.27;;;5.70;;
26977;SDS011;56314;48.088;11.642;2022-07-10T08:06:26;6.93;;;5.32;;
26977;SDS011;56314;48.088;11.642;2022-07-10T08:08:52;5.38;;;4.88;;
26977;SDS011;56314;48.088;11.642;2022-07-10T08:11:17;5.45;;;4.90;;
26977;SDS011;56314;48.088;11.642;2022-07-10T08:13:42;4.93;;;4.40;;
26977;SDS011;56314;48.088;11.642;2022-07-10T08:16:08;4.75;;;4.28;;
26977;SDS011;56314;48.088;11.642;2022-07-10T08:18:33;4.72;;;4.05;;
26977;SDS011;56314;48.088;11.642;2022-07-10T08:20:59;4.63;;;4.22;;
26977;SDS011;56314;48.088;11.642;2022-07-10T08:23:24;6.13;;;4.10;;
26977;SDS011;56314;48.088;11.642;2022-07-10T08:25:50;6.00;;;3.90;;
26977;SDS011;56314;48.088;11.642;2022-07-10T08:28:15;6.93;;;4.22;;
26977;SDS011;56314;48.088;11.642;2022-07-10T08:30:40;4.03;;;3.58;;
26977;SDS011;56314;48.088;11.642;2022-07-10T08:33:07;5.40;;;4.10;;
26977;SDS011;56314;48.088;11.642;2022-07-10T08:35:33;4.90;;;3.70;;
26977;SDS011;56314;48.088;11.642;2022-07-10T08:37:58;4.00;;;3.40;;
26977;SDS011;56314;48.088;11.642;2022-07-10T08:40:24;6.90;;;3.25;;
26977;SDS011;56314;48.088;11.642;2022-07-10T08:42:49;5.60;;;3.20;;
26977;SDS011;56314;48.088;11.642;2022-07-10T08:45:15;3.15;;;2.70;;
26977;SDS011;56314;48.088;11.642;2022-07-10T08:47:41;3.08;;;2.70;;
26977;SDS011;56314;48.088;11.642;2022-07-10T08:50:15;3.17;;;2.42;;
26977;SDS011;56314;48.088;11.642;2022-07-10T08:52:43;4.93;;;2.88;;
26977;SDS011;56314;48.088;11.642;2022-07-10T08:55:19;3.25;;;2.80;;
26977;SDS011;56314;48.088;11.642;2022-07-10T08:57:47;5.28;;;2.60;;
26977;SDS011;56314;48.088;11.642;2022-07-10T09:00:13;4.55;;;2.92;;
26977;SDS011;56314;48.088;11.642;2022-07-10T09:02:39;2.92;;;2.58;;
26977;SDS011;56314;48.088;11.642;2022-07-10T09:05:04;3.70;;;2.40;;
26977;SDS011;56314;48.088;11.642;2022-07-10T09:07:36;4.18;;;2.40;;
26977;SDS011;56314;48.088;11.642;2022-07-10T09:10:05;3.60;;;2.40;;
26977;SDS011;56314;48.088;11.642;2022-07-10T09:12:32;4.28;;;2.20;;
26977;SDS011;56314;48.088;11.642;2022-07-10T09:15:15;3.65;;;2.22;;
26977;SDS011;56314;48.088;11.642;2022-07-10T09:17:49;3.25;;;2.22;;
26977;SDS011;56314;48.088;11.642;2022-07-10T09:20:29;3.47;;;2.20;;
26977;SDS011;56314;48.088;11.642;2022-07-10T09:23:08;4.25;;;2.17;;
26977;SDS011;56314;48.088;11.642;2022-07-10T09:25:40;3.55;;;2.30;;
26977;SDS011;56314;48.088;11.642;2022-07-10T09:28:05;5.57;;;2.35;;
26977;SDS011;56314;48.088;11.642;2022-07-10T09:30:31;3.47;;;2.25;;
26977;SDS011;56314;48.088;11.642;2022-07-10T09:41:16;3.90;;;2.00;;
26977;SDS011;56314;48.088;11.642;2022-07-10T09:44:02;8.37;;;2.07;;
26977;SDS011;56314;48.088;11.642;2022-07-10T09:46:35;3.63;;;1.80;;
26977;SDS011;56314;48.088;11.642;2022-07-10T09:51:31;2.97;;;2.03;;
26977;SDS011;56314;48.088;11.642;2022-07-10T09:54:01;3.15;;;1.77;;
26977;SDS011;56314;48.088;11.642;2022-07-10T09:57:01;2.17;;;1.63;;
26977;SDS011;56314;48.088;11.642;2022-07-10T09:59:21;5.65;;;2.22;;
26977;SDS011;56314;48.088;11.642;2022-07-10T10:01:47;2.55;;;1.70;;
26977;SDS011;56314;48.088;11.642;2022-07-10T10:04:23;5.00;;;1.70;;
26977;SDS011;56314;48.088;11.642;2022-07-10T10:06:51;3.88;;;1.80;;
26977;SDS011;56314;48.088;11.642;2022-07-10T10:09:24;3.08;;;2.10;;
26977;SDS011;56314;48.088;11.642;2022-07-10T10:12:02;2.22;;;1.58;;
26977;SDS011;56314;48.088;11.642;2022-07-10T10:14:32;3.50;;;1.88;;
26977;SDS011;56314;48.088;11.642;2022-07-10T10:16:59;2.85;;;1.70;;
26977;SDS011;56314;48.088;11.642;2022-07-10T10:19:25;2.03;;;1.80;;
26977;SDS011;56314;48.088;11.642;2022-07-10T10:22:09;3.42;;;1.67;;
26977;SDS011;56314;48.088;11.642;2022-07-10T10:24:37;5.07;;;2.30;;
26977;SDS011;56314;48.088;11.642;2022-07-10T10:27:04;3.10;;;1.70;;
26977;SDS011;56314;48.088;11.642;2022-07-10T10:29:31;2.95;;;1.70;;
26977;SDS011;56314;48.088;11.642;2022-07-10T10:32:00;3.72;;;1.67;;
26977;SDS011;56314;48.088;11.642;2022-07-10T10:37:06;1.83;;;1.65;;
26977;SDS011;56314;48.088;11.642;2022-07-10T10:39:52;1.98;;;1.50;;
26977;SDS011;56314;48.088;11.642;2022-07-10T10:42:31;2.30;;;1.50;;
26977;SDS011;56314;48.088;11.642;2022-07-10T10:47:57;3.63;;;1.52;;
26977;SDS011;56314;48.088;11.642;2022-07-10T10:50:37;2.10;;;1.70;;
26977;SDS011;56314;48.088;11.642;2022-07-10T10:58:25;2.85;;;1.90;;
26977;SDS011;56314;48.088;11.642;2022-07-10T11:00:52;3.72;;;1.83;;
26977;SDS011;56314;48.088;11.642;2022-07-10T11:03:21;1.98;;;1.50;;
26977;SDS011;56314;48.088;11.642;2022-07-10T11:05:49;3.35;;;1.80;;
26977;SDS011;56314;48.088;11.642;2022-07-10T11:08:35;2.65;;;1.73;;
26977;SDS011;56314;48.088;11.642;2022-07-10T11:13:58;3.75;;;2.00;;
26977;SDS011;56314;48.088;11.642;2022-07-10T11:16:23;6.55;;;1.88;;
26977;SDS011;56314;48.088;11.642;2022-07-10T11:18:52;5.10;;;1.80;;
26977;SDS011;56314;48.088;11.642;2022-07-10T11:21:22;4.32;;;1.75;;
26977;SDS011;56314;48.088;11.642;2022-07-10T11:26:50;2.08;;;1.90;;
26977;SDS011;56314;48.088;11.642;2022-07-10T11:29:27;2.97;;;1.70;;
26977;SDS011;56314;48.088;11.642;2022-07-10T11:31:53;5.85;;;1.90;;
26977;SDS011;56314;48.088;11.642;2022-07-10T11:34:19;2.55;;;1.80;;
26977;SDS011;56314;48.088;11.642;2022-07-10T11:36:46;4.63;;;1.80;;
26977;SDS011;56314;48.088;11.642;2022-07-10T11:39:12;3.53;;;1.88;;
26977;SDS011;56314;48.088;11.642;2022-07-10T11:41:42;4.28;;;1.58;;
26977;SDS011;56314;48.088;11.642;2022-07-10T11:44:13;2.97;;;1.60;;
26977;SDS011;56314;48.088;11.642;2022-07-10T11:46:41;5.13;;;2.08;;
26977;SDS011;56314;48.088;11.642;2022-07-10T11:49:09;4.68;;;2.15;;
26977;SDS011;56314;48.088;11.642;2022-07-10T11:51:36;2.78;;;1.67;;
26977;SDS011;56314;48.088;11.642;2022-07-10T11:54:08;2.92;;;1.17;;
26977;SDS011;56314;48.088;11.642;2022-07-10T11:56:45;3.35;;;1.48;;
26977;SDS011;56314;48.088;11.642;2022-07-10T11:59:13;3.38;;;1.40;;
26977;SDS011;56314;48.088;11.642;2022-07-10T12:01:49;2.63;;;1.30;;
26977;SDS011;56314;48.088;11.642;2022-07-10T12:04:17;1.90;;;1.70;;
26977;SDS011;56314;48.088;11.642;2022-07-10T12:06:44;3.97;;;1.67;;
26977;SDS011;56314;48.088;11.642;2022-07-10T12:09:12;5.57;;;1.80;;
26977;SDS011;56314;48.088;11.642;2022-07-10T12:11:42;3.10;;;1.70;;
26977;SDS011;56314;48.088;11.642;2022-07-10T12:16:39;4.05;;;2.10;;
26977;SDS011;56314;48.088;11.642;2022-07-10T12:19:07;3.78;;;1.70;;
26977;SDS011;56314;48.088;11.642;2022-07-10T12:21:33;2.40;;;1.65;;
26977;SDS011;56314;48.088;11.642;2022-07-10T12:24:00;3.17;;;1.55;;
26977;SDS011;56314;48.088;11.642;2022-07-10T12:26:34;2.25;;;1.42;;
26977;SDS011;56314;48.088;11.642;2022-07-10T12:29:00;2.30;;;1.55;;
26977;SDS011;56314;48.088;11.642;2022-07-10T12:31:37;3.22;;;1.80;;
26977;SDS011;56314;48.088;11.642;2022-07-10T12:34:03;3.63;;;1.67;;
26977;SDS011;56314;48.088;11.642;2022-07-10T12:39:15;4.20;;;1.77;;
26977;SDS011;56314;48.088;11.642;2022-07-10T12:42:00;2.88;;;1.88;;
26977;SDS011;56314;48.088;11.642;2022-07-10T12:44:44;2.72;;;1.85;;
26977;SDS011;56314;48.088;11.642;2022-07-10T12:47:14;2.45;;;1.60;;
26977;SDS011;56314;48.088;11.642;2022-07-10T12:52:33;3.28;;;1.50;;
26977;SDS011;56314;48.088;11.642;2022-07-10T12:57:59;2.22;;;1.73;;
26977;SDS011;56314;48.088;11.642;2022-07-10T13:00:30;4.05;;;1.50;;
26977;SDS011;56314;48.088;11.642;2022-07-10T13:03:02;2.65;;;1.67;;
26977;SDS011;56314;48.088;11.642;2022-07-10T13:05:35;3.67;;;1.30;;
26977;SDS011;56314;48.088;11.642;2022-07-10T13:08:20;2.88;;;1.27;;
26977;SDS011;56314;48.088;11.642;2022-07-10T13:10:49;5.93;;;2.13;;
26977;SDS011;56314;48.088;11.642;2022-07-10T13:13:16;3.15;;;1.60;;
26977;SDS011;56314;48.088;11.642;2022-07-10T13:15:45;5.80;;;1.50;;
26977;SDS011;56314;48.088;11.642;2022-07-10T13:18:28;4.13;;;1.50;;
26977;SDS011;56314;48.088;11.642;2022-07-10T13:20:54;1.85;;;1.40;;
26977;SDS011;56314;48.088;11.642;2022-07-10T13:23:21;4.13;;;1.90;;
26977;SDS011;56314;48.088;11.642;2022-07-10T13:25:51;2.60;;;1.10;;
26977;SDS011;56314;48.088;11.642;2022-07-10T13:28:17;3.72;;;1.50;;
26977;SDS011;56314;48.088;11.642;2022-07-10T13:30:43;4.13;;;1.63;;
26977;SDS011;56314;48.088;11.642;2022-07-10T13:33:09;2.47;;;1.73;;
26977;SDS011;56314;48.088;11.642;2022-07-10T13:35:34;4.93;;;1.58;;
26977;SDS011;56314;48.088;11.642;2022-07-10T13:38:00;2.60;;;1.40;;
26977;SDS011;56314;48.088;11.642;2022-07-10T13:40:27;5.90;;;1.60;;
26977;SDS011;56314;48.088;11.642;2022-07-10T13:42:55;4.57;;;1.50;;
26977;SDS011;56314;48.088;11.642;2022-07-10T13:45:21;3.85;;;1.42;;
26977;SDS011;56314;48.088;11.642;2022-07-10T13:47:47;3.95;;;1.50;;
26977;SDS011;56314;48.088;11.642;2022-07-10T13:50:13;4.32;;;1.50;;
26977;SDS011;56314;48.088;11.642;2022-07-10T13:52:39;2.15;;;1.38;;
26977;SDS011;56314;48.088;11.642;2022-07-10T13:55:04;2.63;;;1.40;;
26977;SDS011;56314;48.088;11.642;2022-07-10T13:57:31;1.70;;;1.40;;
26977;SDS011;56314;48.088;11.642;2022-07-10T13:59:57;3.75;;;1.60;;
26977;SDS011;56314;48.088;11.642;2022-07-10T14:02:22;3.67;;;1.52;;
26977;SDS011;56314;48.088;11.642;2022-07-10T14:04:48;3.72;;;1.30;;
26977;SDS011;56314;48.088;11.642;2022-07-10T14:07:13;6.70;;;1.52;;
26977;SDS011;56314;48.088;11.642;2022-07-10T14:09:38;7.43;;;1.52;;
26977;SDS011;56314;48.088;11.642;2022-07-10T14:12:04;2.72;;;1.27;;
26977;SDS011;56314;48.088;11.642;2022-07-10T14:14:30;4.30;;;1.45;;
26977;SDS011;56314;48.088;11.642;2022-07-10T14:16:56;1.58;;;1.35;;
26977;SDS011;56314;48.088;11.642;2022-07-10T14:19:21;3.50;;;1.30;;
26977;SDS011;56314;48.088;11.642;2022-07-10T14:21:47;3.63;;;1.25;;
26977;SDS011;56314;48.088;11.642;2022-07-10T14:24:12;3.67;;;1.75;;
26977;SDS011;56314;48.088;11.642;2022-07-10T14:26:38;2.20;;;1.42;;
26977;SDS011;56314;48.088;11.642;2022-07-10T14:29:03;2.53;;;1.30;;
26977;SDS011;56314;48.088;11.642;2022-07-10T14:31:29;2.55;;;1.45;;
26977;SDS011;56314;48.088;11.642;2022-07-10T14:33:55;3.65;;;1.55;;
26977;SDS011;56314;48.088;11.642;2022-07-10T14:36:20;2.15;;;1.38;;
26977;SDS011;56314;48.088;11.642;2022-07-10T14:38:51;2.63;;;1.42;;
26977;SDS011;56314;48.088;11.642;2022-07-10T14:41:17;4.65;;;1.50;;
26977;SDS011;56314;48.088;11.642;2022-07-10T14:43:42;1.88;;;1.38;;
26977;SDS011;56314;48.088;11.642;2022-07-10T14:46:07;2.05;;;1.23;;
26977;SDS011;56314;48.088;11.642;2022-07-10T14:48:33;3.35;;;1.67;;
26977;SDS011;56314;48.088;11.642;2022-07-10T14:50:59;1.50;;;1.40;;
26977;SDS011;56314;48.088;11.642;2022-07-10T14:53:25;1.35;;;1.25;;
26977;SDS011;56314;48.088;11.642;2022-07-10T14:55:51;2.03;;;1.38;;
26977;SDS011;56314;48.088;11.642;2022-07-10T14:58:16;4.03;;;1.38;;
26977;SDS011;56314;48.088;11.642;2022-07-10T15:00:42;3.00;;;1.20;;
26977;SDS011;56314;48.088;11.642;2022-07-10T15:03:07;2.90;;;1.40;;
26977;SDS011;56314;48.088;11.642;2022-07-10T15:05:33;1.95;;;1.30;;
26977;SDS011;56314;48.088;11.642;2022-07-10T15:07:59;2.60;;;1.40;;
26977;SDS011;56314;48.088;11.642;2022-07-10T15:10:26;3.88;;;1.45;;
26977;SDS011;56314;48.088;11.642;2022-07-10T15:12:51;5.75;;;1.67;;
26977;SDS011;56314;48.088;11.642;2022-07-10T15:15:17;1.63;;;1.30;;